sensor_id;sensor_type;location;lat;lon;timestamp;temperature;humidity
20911;DHT22;10615;42.702;23.314;2023-01-19T00:00:13;15.10;54.60
20911;DHT22;10615;42.702;23.314;2023-01-19T00:01:15;15.10;54.60
20911;DHT22;10615;42.702;23.314;2023-01-19T00:02:15;15.10;54.70
20911;DHT22;10615;42.702;23.314;2023-01-19T00:03:16;15.10;54.80
20911;DHT22;10615;42.702;23.314;2023-01-19T00:04:17;15.10;54.90
20911;DHT22;10615;42.702;23.314;2023-01-19T00:05:17;15.10;54.90
20911;DHT22;10615;42.702;23.314;2023-01-19T00:06:18;15.10;55.00
20911;DHT22;10615;42.702;23.314;2023-01-19T00:07:19;15.10;55.10
20911;DHT22;10615;42.702;23.314;2023-01-19T00:08:19;15.10;55.20
20911;DHT22;10615;42.702;23.314;2023-01-19T00:09:20;15.10;55.20
20911;DHT22;10615;42.702;23.314;2023-01-19T00:10:22;15.10;55.30
20911;DHT22;10615;42.702;23.314;2023-01-19T00:11:23;15.10;55.30
20911;DHT22;10615;42.702;23.314;2023-01-19T00:12:24;15.10;55.40
20911;DHT22;10615;42.702;23.314;2023-01-19T00:13:25;15.00;55.40
20911;DHT22;10615;42.702;23.314;2023-01-19T00:14:25;15.10;55.60
20911;DHT22;10615;42.702;23.314;2023-01-19T00:15:26;15.10;55.60
20911;DHT22;10615;42.702;23.314;2023-01-19T00:16:27;15.00;55.60
20911;DHT22;10615;42.702;23.314;2023-01-19T00:17:27;15.00;55.70
20911;DHT22;10615;42.702;23.314;2023-01-19T00:18:28;15.00;55.80
20911;DHT22;10615;42.702;23.314;2023-01-19T00:19:29;15.00;55.80
20911;DHT22;10615;42.702;23.314;2023-01-19T00:20:29;15.00;55.90
20911;DHT22;10615;42.702;23.314;2023-01-19T00:21:32;15.00;55.90
20911;DHT22;10615;42.702;23.314;2023-01-19T00:22:32;15.00;55.90
20911;DHT22;10615;42.702;23.314;2023-01-19T00:23:33;15.00;55.90
20911;DHT22;10615;42.702;23.314;2023-01-19T00:24:34;15.00;56.00
20911;DHT22;10615;42.702;23.314;2023-01-19T00:25:35;15.00;56.00
20911;DHT22;10615;42.702;23.314;2023-01-19T00:26:41;15.00;56.00
20911;DHT22;10615;42.702;23.314;2023-01-19T00:27:42;15.00;55.90
20911;DHT22;10615;42.702;23.314;2023-01-19T00:28:48;15.00;55.90
20911;DHT22;10615;42.702;23.314;2023-01-19T00:29:49;15.00;55.90
20911;DHT22;10615;42.702;23.314;2023-01-19T00:30:50;15.00;55.90
20911;DHT22;10615;42.702;23.314;2023-01-19T00:31:51;15.00;55.90
20911;DHT22;10615;42.702;23.314;2023-01-19T00:32:52;15.00;55.90
20911;DHT22;10615;42.702;23.314;2023-01-19T00:33:52;15.00;56.00
20911;DHT22;10615;42.702;23.314;2023-01-19T00:34:53;15.00;56.00
20911;DHT22;10615;42.702;23.314;2023-01-19T00:35:54;15.00;55.90
20911;DHT22;10615;42.702;23.314;2023-01-19T00:36:54;15.00;56.00
20911;DHT22;10615;42.702;23.314;2023-01-19T00:37:56;15.00;55.90
20911;DHT22;10615;42.702;23.314;2023-01-19T00:38:57;15.00;56.00
20911;DHT22;10615;42.702;23.314;2023-01-19T00:39:57;15.00;55.90
20911;DHT22;10615;42.702;23.314;2023-01-19T00:40:58;15.00;56.00
20911;DHT22;10615;42.702;23.314;2023-01-19T00:41:59;15.00;56.00
20911;DHT22;10615;42.702;23.314;2023-01-19T00:43:18;15.00;56.00
20911;DHT22;10615;42.702;23.314;2023-01-19T00:44:18;15.00;56.00
20911;DHT22;10615;42.702;23.314;2023-01-19T00:45:22;15.00;56.00
20911;DHT22;10615;42.702;23.314;2023-01-19T00:46:23;15.00;55.90
20911;DHT22;10615;42.702;23.314;2023-01-19T00:47:27;15.00;55.90
20911;DHT22;10615;42.702;23.314;2023-01-19T00:48:27;15.00;55.80
20911;DHT22;10615;42.702;23.314;2023-01-19T00:49:28;15.00;55.70
20911;DHT22;10615;42.702;23.314;2023-01-19T00:50:31;15.00;55.70
20911;DHT22;10615;42.702;23.314;2023-01-19T00:51:31;15.00;55.60
20911;DHT22;10615;42.702;23.314;2023-01-19T00:52:32;15.00;55.60
20911;DHT22;10615;42.702;23.314;2023-01-19T00:53:33;15.00;55.60
20911;DHT22;10615;42.702;23.314;2023-01-19T00:54:33;15.00;55.60
20911;DHT22;10615;42.702;23.314;2023-01-19T00:55:34;15.00;55.60
20911;DHT22;10615;42.702;23.314;2023-01-19T00:56:35;15.00;55.50
20911;DHT22;10615;42.702;23.314;2023-01-19T00:57:37;15.00;55.50
20911;DHT22;10615;42.702;23.314;2023-01-19T00:58:38;15.00;55.40
20911;DHT22;10615;42.702;23.314;2023-01-19T00:59:39;15.00;55.40
20911;DHT22;10615;42.702;23.314;2023-01-19T01:00:39;15.00;55.50
20911;DHT22;10615;42.702;23.314;2023-01-19T01:01:40;15.00;55.40
20911;DHT22;10615;42.702;23.314;2023-01-19T01:02:42;15.10;55.40
20911;DHT22;10615;42.702;23.314;2023-01-19T01:03:43;15.00;55.20
20911;DHT22;10615;42.702;23.314;2023-01-19T01:04:43;15.10;55.20
20911;DHT22;10615;42.702;23.314;2023-01-19T01:05:44;15.00;55.20
20911;DHT22;10615;42.702;23.314;2023-01-19T01:06:45;15.10;55.20
20911;DHT22;10615;42.702;23.314;2023-01-19T01:07:46;15.10;55.20
20911;DHT22;10615;42.702;23.314;2023-01-19T01:08:48;15.00;55.20
20911;DHT22;10615;42.702;23.314;2023-01-19T01:09:50;15.00;55.20
20911;DHT22;10615;42.702;23.314;2023-01-19T01:10:51;15.00;55.20
20911;DHT22;10615;42.702;23.314;2023-01-19T01:11:51;15.00;55.30
20911;DHT22;10615;42.702;23.314;2023-01-19T01:12:52;15.00;55.30
20911;DHT22;10615;42.702;23.314;2023-01-19T01:13:53;15.00;55.30
20911;DHT22;10615;42.702;23.314;2023-01-19T01:14:54;15.00;55.30
20911;DHT22;10615;42.702;23.314;2023-01-19T01:15:56;15.00;55.30
20911;DHT22;10615;42.702;23.314;2023-01-19T01:16:56;15.00;55.30
20911;DHT22;10615;42.702;23.314;2023-01-19T01:17:57;15.00;55.30
20911;DHT22;10615;42.702;23.314;2023-01-19T01:18:58;15.00;55.20
20911;DHT22;10615;42.702;23.314;2023-01-19T01:19:58;15.00;55.20
20911;DHT22;10615;42.702;23.314;2023-01-19T01:21:03;15.00;55.20
20911;DHT22;10615;42.702;23.314;2023-01-19T01:22:04;15.00;55.20
20911;DHT22;10615;42.702;23.314;2023-01-19T01:23:05;14.90;55.20
20911;DHT22;10615;42.702;23.314;2023-01-19T01:24:07;15.00;55.20
20911;DHT22;10615;42.702;23.314;2023-01-19T01:25:08;14.90;55.10
20911;DHT22;10615;42.702;23.314;2023-01-19T01:26:09;15.00;55.20
20911;DHT22;10615;42.702;23.314;2023-01-19T01:27:09;14.90;55.10
20911;DHT22;10615;42.702;23.314;2023-01-19T01:28:11;15.00;55.20
20911;DHT22;10615;42.702;23.314;2023-01-19T01:29:11;14.90;55.20
20911;DHT22;10615;42.702;23.314;2023-01-19T01:30:13;15.00;55.30
20911;DHT22;10615;42.702;23.314;2023-01-19T01:31:14;14.90;55.20
20911;DHT22;10615;42.702;23.314;2023-01-19T01:32:15;15.00;55.30
20911;DHT22;10615;42.702;23.314;2023-01-19T01:33:16;14.90;55.10
20911;DHT22;10615;42.702;23.314;2023-01-19T01:34:16;14.90;55.10
20911;DHT22;10615;42.702;23.314;2023-01-19T01:35:17;14.90;55.10
20911;DHT22;10615;42.702;23.314;2023-01-19T01:36:18;14.90;55.00
20911;DHT22;10615;42.702;23.314;2023-01-19T01:37:20;15.00;55.10
20911;DHT22;10615;42.702;23.314;2023-01-19T01:38:20;15.00;55.00
20911;DHT22;10615;42.702;23.314;2023-01-19T01:39:21;15.00;54.90
20911;DHT22;10615;42.702;23.314;2023-01-19T01:40:21;15.00;54.90
20911;DHT22;10615;42.702;23.314;2023-01-19T01:41:22;15.00;54.90
20911;DHT22;10615;42.702;23.314;2023-01-19T01:42:28;15.00;55.00
20911;DHT22;10615;42.702;23.314;2023-01-19T01:45:32;14.90;54.80
20911;DHT22;10615;42.702;23.314;2023-01-19T01:46:32;15.00;54.80
20911;DHT22;10615;42.702;23.314;2023-01-19T01:47:43;14.90;54.80
20911;DHT22;10615;42.702;23.314;2023-01-19T01:49:14;14.90;54.80
20911;DHT22;10615;42.702;23.314;2023-01-19T01:50:21;15.00;54.80
20911;DHT22;10615;42.702;23.314;2023-01-19T01:52:55;14.90;54.60
20911;DHT22;10615;42.702;23.314;2023-01-19T01:55:08;15.00;54.60
20911;DHT22;10615;42.702;23.314;2023-01-19T01:56:13;15.00;54.60
20911;DHT22;10615;42.702;23.314;2023-01-19T01:57:16;15.00;54.60
20911;DHT22;10615;42.702;23.314;2023-01-19T01:58:17;15.00;54.60
20911;DHT22;10615;42.702;23.314;2023-01-19T01:59:27;15.00;54.60
20911;DHT22;10615;42.702;23.314;2023-01-19T02:00:34;15.00;54.60
20911;DHT22;10615;42.702;23.314;2023-01-19T02:01:56;15.00;54.60
20911;DHT22;10615;42.702;23.314;2023-01-19T02:03:15;15.00;54.50
20911;DHT22;10615;42.702;23.314;2023-01-19T02:04:16;15.00;54.50
20911;DHT22;10615;42.702;23.314;2023-01-19T02:06:20;15.00;55.10
20911;DHT22;10615;42.702;23.314;2023-01-19T02:09:06;15.00;54.30
20911;DHT22;10615;42.702;23.314;2023-01-19T02:10:26;15.00;54.30
20911;DHT22;10615;42.702;23.314;2023-01-19T02:11:46;15.00;54.20
20911;DHT22;10615;42.702;23.314;2023-01-19T02:13:05;15.00;54.20
20911;DHT22;10615;42.702;23.314;2023-01-19T02:14:20;15.00;54.20
20911;DHT22;10615;42.702;23.314;2023-01-19T02:15:20;15.00;54.20
20911;DHT22;10615;42.702;23.314;2023-01-19T02:16:21;15.00;54.10
20911;DHT22;10615;42.702;23.314;2023-01-19T02:17:22;15.00;54.00
20911;DHT22;10615;42.702;23.314;2023-01-19T02:18:26;15.00;53.90
20911;DHT22;10615;42.702;23.314;2023-01-19T02:19:35;15.00;53.90
20911;DHT22;10615;42.702;23.314;2023-01-19T02:20:39;15.10;53.90
20911;DHT22;10615;42.702;23.314;2023-01-19T02:22:04;15.10;53.80
20911;DHT22;10615;42.702;23.314;2023-01-19T02:23:15;15.00;53.60
20911;DHT22;10615;42.702;23.314;2023-01-19T02:24:18;15.00;53.50
20911;DHT22;10615;42.702;23.314;2023-01-19T02:25:19;15.10;53.50
20911;DHT22;10615;42.702;23.314;2023-01-19T02:26:25;15.10;53.50
20911;DHT22;10615;42.702;23.314;2023-01-19T02:27:26;15.10;53.50
20911;DHT22;10615;42.702;23.314;2023-01-19T02:28:27;15.10;53.50
20911;DHT22;10615;42.702;23.314;2023-01-19T02:29:28;15.10;53.50
20911;DHT22;10615;42.702;23.314;2023-01-19T02:30:29;15.10;53.40
20911;DHT22;10615;42.702;23.314;2023-01-19T02:31:30;15.10;53.40
20911;DHT22;10615;42.702;23.314;2023-01-19T02:32:32;15.10;53.40
20911;DHT22;10615;42.702;23.314;2023-01-19T02:33:32;15.10;53.40
20911;DHT22;10615;42.702;23.314;2023-01-19T02:34:34;15.10;53.40
20911;DHT22;10615;42.702;23.314;2023-01-19T02:35:36;15.10;53.40
20911;DHT22;10615;42.702;23.314;2023-01-19T02:37:44;15.10;53.50
20911;DHT22;10615;42.702;23.314;2023-01-19T02:38:46;15.10;54.10
20911;DHT22;10615;42.702;23.314;2023-01-19T02:39:55;15.10;53.40
20911;DHT22;10615;42.702;23.314;2023-01-19T02:40:59;15.10;53.40
20911;DHT22;10615;42.702;23.314;2023-01-19T02:42:06;15.10;53.30
20911;DHT22;10615;42.702;23.314;2023-01-19T02:43:08;15.00;53.20
20911;DHT22;10615;42.702;23.314;2023-01-19T02:44:10;15.00;53.20
20911;DHT22;10615;42.702;23.314;2023-01-19T02:45:13;15.00;53.20
20911;DHT22;10615;42.702;23.314;2023-01-19T02:46:15;15.10;53.20
20911;DHT22;10615;42.702;23.314;2023-01-19T02:47:15;15.00;53.20
20911;DHT22;10615;42.702;23.314;2023-01-19T02:48:19;15.10;53.20
20911;DHT22;10615;42.702;23.314;2023-01-19T02:49:20;15.00;53.20
20911;DHT22;10615;42.702;23.314;2023-01-19T02:50:40;15.10;53.20
20911;DHT22;10615;42.702;23.314;2023-01-19T02:51:43;15.00;53.10
20911;DHT22;10615;42.702;23.314;2023-01-19T02:52:43;15.00;53.00
20911;DHT22;10615;42.702;23.314;2023-01-19T02:55:10;15.00;53.10
20911;DHT22;10615;42.702;23.314;2023-01-19T02:58:57;15.00;53.20
20911;DHT22;10615;42.702;23.314;2023-01-19T03:01:31;15.00;53.30
20911;DHT22;10615;42.702;23.314;2023-01-19T03:03:03;15.00;53.30
20911;DHT22;10615;42.702;23.314;2023-01-19T03:04:16;15.00;53.30
20911;DHT22;10615;42.702;23.314;2023-01-19T03:06:43;15.00;53.20
20911;DHT22;10615;42.702;23.314;2023-01-19T03:09:08;15.00;53.10
20911;DHT22;10615;42.702;23.314;2023-01-19T03:11:35;15.00;53.10
20911;DHT22;10615;42.702;23.314;2023-01-19T03:13:15;15.00;53.00
20911;DHT22;10615;42.702;23.314;2023-01-19T03:14:21;15.00;53.10
20911;DHT22;10615;42.702;23.314;2023-01-19T03:16:56;15.00;53.10
20911;DHT22;10615;42.702;23.314;2023-01-19T03:17:57;15.00;53.00
20911;DHT22;10615;42.702;23.314;2023-01-19T03:19:26;15.00;52.90
20911;DHT22;10615;42.702;23.314;2023-01-19T03:20:28;15.00;52.80
20911;DHT22;10615;42.702;23.314;2023-01-19T03:21:29;15.00;52.80
20911;DHT22;10615;42.702;23.314;2023-01-19T03:22:31;15.00;52.80
20911;DHT22;10615;42.702;23.314;2023-01-19T03:23:33;15.00;52.60
20911;DHT22;10615;42.702;23.314;2023-01-19T03:24:39;15.00;52.60
20911;DHT22;10615;42.702;23.314;2023-01-19T03:25:42;15.00;52.60
20911;DHT22;10615;42.702;23.314;2023-01-19T03:26:48;15.00;52.60
20911;DHT22;10615;42.702;23.314;2023-01-19T03:27:51;15.00;52.50
20911;DHT22;10615;42.702;23.314;2023-01-19T03:28:55;15.00;52.50
20911;DHT22;10615;42.702;23.314;2023-01-19T03:29:59;15.00;52.40
20911;DHT22;10615;42.702;23.314;2023-01-19T03:31:19;15.00;52.40
20911;DHT22;10615;42.702;23.314;2023-01-19T03:32:24;15.00;52.50
20911;DHT22;10615;42.702;23.314;2023-01-19T03:33:33;15.00;52.50
20911;DHT22;10615;42.702;23.314;2023-01-19T03:34:38;15.00;52.50
20911;DHT22;10615;42.702;23.314;2023-01-19T03:35:43;15.00;52.60
20911;DHT22;10615;42.702;23.314;2023-01-19T03:36:50;15.00;52.60
20911;DHT22;10615;42.702;23.314;2023-01-19T03:37:54;14.90;52.60
20911;DHT22;10615;42.702;23.314;2023-01-19T03:38:59;15.00;52.80
20911;DHT22;10615;42.702;23.314;2023-01-19T03:40:00;15.00;53.50
20911;DHT22;10615;42.702;23.314;2023-01-19T03:41:05;14.90;52.80
20911;DHT22;10615;42.702;23.314;2023-01-19T03:42:09;15.00;52.80
20911;DHT22;10615;42.702;23.314;2023-01-19T03:43:13;14.90;52.70
20911;DHT22;10615;42.702;23.314;2023-01-19T03:44:15;14.90;52.70
20911;DHT22;10615;42.702;23.314;2023-01-19T03:45:16;14.90;52.80
20911;DHT22;10615;42.702;23.314;2023-01-19T03:46:18;14.90;52.70
20911;DHT22;10615;42.702;23.314;2023-01-19T03:47:19;14.90;52.80
20911;DHT22;10615;42.702;23.314;2023-01-19T03:48:20;14.90;52.80
20911;DHT22;10615;42.702;23.314;2023-01-19T03:49:21;14.90;52.80
20911;DHT22;10615;42.702;23.314;2023-01-19T03:50:25;15.00;52.80
20911;DHT22;10615;42.702;23.314;2023-01-19T03:51:26;15.00;52.90
20911;DHT22;10615;42.702;23.314;2023-01-19T03:52:29;14.90;52.80
20911;DHT22;10615;42.702;23.314;2023-01-19T03:53:31;14.90;52.80
20911;DHT22;10615;42.702;23.314;2023-01-19T03:54:32;14.90;52.80
20911;DHT22;10615;42.702;23.314;2023-01-19T03:55:34;14.90;52.80
20911;DHT22;10615;42.702;23.314;2023-01-19T03:56:36;14.90;52.80
20911;DHT22;10615;42.702;23.314;2023-01-19T03:57:37;14.90;52.80
20911;DHT22;10615;42.702;23.314;2023-01-19T03:58:37;14.90;52.60
20911;DHT22;10615;42.702;23.314;2023-01-19T03:59:38;14.90;52.60
20911;DHT22;10615;42.702;23.314;2023-01-19T04:00:39;14.90;52.50
20911;DHT22;10615;42.702;23.314;2023-01-19T04:01:39;14.90;52.40
20911;DHT22;10615;42.702;23.314;2023-01-19T04:02:40;14.90;52.30
20911;DHT22;10615;42.702;23.314;2023-01-19T04:03:41;14.90;52.20
20911;DHT22;10615;42.702;23.314;2023-01-19T04:04:42;14.90;52.20
20911;DHT22;10615;42.702;23.314;2023-01-19T04:05:44;14.90;52.20
20911;DHT22;10615;42.702;23.314;2023-01-19T04:06:44;14.90;52.10
20911;DHT22;10615;42.702;23.314;2023-01-19T04:07:47;14.90;52.00
20911;DHT22;10615;42.702;23.314;2023-01-19T04:08:49;14.90;51.90
20911;DHT22;10615;42.702;23.314;2023-01-19T04:09:50;14.90;51.80
20911;DHT22;10615;42.702;23.314;2023-01-19T04:10:51;14.90;51.80
20911;DHT22;10615;42.702;23.314;2023-01-19T04:11:52;14.90;51.80
20911;DHT22;10615;42.702;23.314;2023-01-19T04:12:57;15.00;51.90
20911;DHT22;10615;42.702;23.314;2023-01-19T04:13:58;14.90;51.80
20911;DHT22;10615;42.702;23.314;2023-01-19T04:14:58;14.90;51.90
20911;DHT22;10615;42.702;23.314;2023-01-19T04:16:00;14.90;51.80
20911;DHT22;10615;42.702;23.314;2023-01-19T04:17:01;15.00;51.80
20911;DHT22;10615;42.702;23.314;2023-01-19T04:18:01;15.00;51.80
20911;DHT22;10615;42.702;23.314;2023-01-19T04:19:02;15.00;51.70
20911;DHT22;10615;42.702;23.314;2023-01-19T04:20:03;14.90;51.40
20911;DHT22;10615;42.702;23.314;2023-01-19T04:21:05;15.00;51.20
20911;DHT22;10615;42.702;23.314;2023-01-19T04:22:06;15.00;51.20
20911;DHT22;10615;42.702;23.314;2023-01-19T04:23:07;15.00;51.10
20911;DHT22;10615;42.702;23.314;2023-01-19T04:24:08;15.00;51.10
20911;DHT22;10615;42.702;23.314;2023-01-19T04:25:09;15.00;51.00
20911;DHT22;10615;42.702;23.314;2023-01-19T04:26:10;15.00;50.90
20911;DHT22;10615;42.702;23.314;2023-01-19T04:27:10;15.00;50.80
20911;DHT22;10615;42.702;23.314;2023-01-19T04:28:11;15.00;50.80
20911;DHT22;10615;42.702;23.314;2023-01-19T04:29:12;15.00;50.60
20911;DHT22;10615;42.702;23.314;2023-01-19T04:30:13;15.00;50.50
20911;DHT22;10615;42.702;23.314;2023-01-19T04:31:14;15.00;50.40
20911;DHT22;10615;42.702;23.314;2023-01-19T04:32:15;15.10;50.40
20911;DHT22;10615;42.702;23.314;2023-01-19T04:33:15;15.00;50.40
20911;DHT22;10615;42.702;23.314;2023-01-19T04:34:16;15.10;50.40
20911;DHT22;10615;42.702;23.314;2023-01-19T04:35:17;15.00;50.40
20911;DHT22;10615;42.702;23.314;2023-01-19T04:36:17;15.00;50.40
20911;DHT22;10615;42.702;23.314;2023-01-19T04:37:18;15.10;50.50
20911;DHT22;10615;42.702;23.314;2023-01-19T04:38:19;15.00;50.50
20911;DHT22;10615;42.702;23.314;2023-01-19T04:39:19;15.00;50.70
20911;DHT22;10615;42.702;23.314;2023-01-19T04:40:20;15.00;50.50
20911;DHT22;10615;42.702;23.314;2023-01-19T04:41:21;15.00;50.60
20911;DHT22;10615;42.702;23.314;2023-01-19T04:42:21;15.10;50.70
20911;DHT22;10615;42.702;23.314;2023-01-19T04:43:23;15.00;50.70
20911;DHT22;10615;42.702;23.314;2023-01-19T04:44:24;15.00;50.70
20911;DHT22;10615;42.702;23.314;2023-01-19T04:45:24;15.00;50.80
20911;DHT22;10615;42.702;23.314;2023-01-19T04:46:25;15.00;50.80
20911;DHT22;10615;42.702;23.314;2023-01-19T04:47:25;15.10;50.80
20911;DHT22;10615;42.702;23.314;2023-01-19T04:48:26;15.00;50.70
20911;DHT22;10615;42.702;23.314;2023-01-19T04:49:27;15.00;50.70
20911;DHT22;10615;42.702;23.314;2023-01-19T04:50:27;15.00;50.70
20911;DHT22;10615;42.702;23.314;2023-01-19T04:51:28;15.00;50.70
20911;DHT22;10615;42.702;23.314;2023-01-19T04:52:32;15.00;50.70
20911;DHT22;10615;42.702;23.314;2023-01-19T04:53:36;15.10;50.70
20911;DHT22;10615;42.702;23.314;2023-01-19T04:54:37;15.00;50.70
20911;DHT22;10615;42.702;23.314;2023-01-19T04:55:38;15.00;50.70
20911;DHT22;10615;42.702;23.314;2023-01-19T04:56:38;15.00;50.60
20911;DHT22;10615;42.702;23.314;2023-01-19T04:57:40;15.00;50.70
20911;DHT22;10615;42.702;23.314;2023-01-19T04:58:41;15.00;50.60
20911;DHT22;10615;42.702;23.314;2023-01-19T04:59:42;15.00;50.70
20911;DHT22;10615;42.702;23.314;2023-01-19T05:00:43;15.10;50.70
20911;DHT22;10615;42.702;23.314;2023-01-19T05:01:43;15.10;50.60
20911;DHT22;10615;42.702;23.314;2023-01-19T05:02:44;15.10;50.60
20911;DHT22;10615;42.702;23.314;2023-01-19T05:03:45;15.10;50.50
20911;DHT22;10615;42.702;23.314;2023-01-19T05:04:46;15.10;50.40
20911;DHT22;10615;42.702;23.314;2023-01-19T05:05:46;15.00;50.20
20911;DHT22;10615;42.702;23.314;2023-01-19T05:06:47;15.00;50.20
20911;DHT22;10615;42.702;23.314;2023-01-19T05:07:48;15.10;50.20
20911;DHT22;10615;42.702;23.314;2023-01-19T05:08:49;15.10;50.20
20911;DHT22;10615;42.702;23.314;2023-01-19T05:09:50;15.10;50.30
20911;DHT22;10615;42.702;23.314;2023-01-19T05:10:50;15.10;50.40
20911;DHT22;10615;42.702;23.314;2023-01-19T05:11:51;15.10;50.40
20911;DHT22;10615;42.702;23.314;2023-01-19T05:12:52;15.10;50.40
20911;DHT22;10615;42.702;23.314;2023-01-19T05:13:52;15.10;50.40
20911;DHT22;10615;42.702;23.314;2023-01-19T05:14:53;15.10;50.40
20911;DHT22;10615;42.702;23.314;2023-01-19T05:15:54;15.10;50.40
20911;DHT22;10615;42.702;23.314;2023-01-19T05:16:54;15.10;50.40
20911;DHT22;10615;42.702;23.314;2023-01-19T05:17:55;15.00;50.40
20911;DHT22;10615;42.702;23.314;2023-01-19T05:18:57;15.10;50.40
20911;DHT22;10615;42.702;23.314;2023-01-19T05:19:58;15.00;50.40
20911;DHT22;10615;42.702;23.314;2023-01-19T05:20:58;15.10;50.40
20911;DHT22;10615;42.702;23.314;2023-01-19T05:22:04;15.10;50.40
20911;DHT22;10615;42.702;23.314;2023-01-19T05:23:05;15.10;50.30
20911;DHT22;10615;42.702;23.314;2023-01-19T05:24:06;15.10;50.30
20911;DHT22;10615;42.702;23.314;2023-01-19T05:25:07;15.10;50.30
20911;DHT22;10615;42.702;23.314;2023-01-19T05:26:10;15.10;50.20
20911;DHT22;10615;42.702;23.314;2023-01-19T05:27:11;15.10;50.20
20911;DHT22;10615;42.702;23.314;2023-01-19T05:28:12;15.10;50.20
20911;DHT22;10615;42.702;23.314;2023-01-19T05:29:14;15.10;50.20
20911;DHT22;10615;42.702;23.314;2023-01-19T05:30:15;15.10;50.20
20911;DHT22;10615;42.702;23.314;2023-01-19T05:31:16;15.10;50.10
20911;DHT22;10615;42.702;23.314;2023-01-19T05:32:17;15.10;50.10
20911;DHT22;10615;42.702;23.314;2023-01-19T05:33:17;15.10;50.10
20911;DHT22;10615;42.702;23.314;2023-01-19T05:34:18;15.10;50.10
20911;DHT22;10615;42.702;23.314;2023-01-19T05:35:19;15.10;50.10
20911;DHT22;10615;42.702;23.314;2023-01-19T05:36:19;15.10;50.10
20911;DHT22;10615;42.702;23.314;2023-01-19T05:37:20;15.10;50.10
20911;DHT22;10615;42.702;23.314;2023-01-19T05:38:21;15.10;50.80
20911;DHT22;10615;42.702;23.314;2023-01-19T05:39:22;15.10;50.00
20911;DHT22;10615;42.702;23.314;2023-01-19T05:40:23;15.10;50.00
20911;DHT22;10615;42.702;23.314;2023-01-19T05:41:23;15.10;49.90
20911;DHT22;10615;42.702;23.314;2023-01-19T05:42:24;15.10;50.00
20911;DHT22;10615;42.702;23.314;2023-01-19T05:43:25;15.10;49.90
20911;DHT22;10615;42.702;23.314;2023-01-19T05:44:25;15.10;50.00
20911;DHT22;10615;42.702;23.314;2023-01-19T05:45:26;15.10;50.00
20911;DHT22;10615;42.702;23.314;2023-01-19T05:46:31;15.10;49.90
20911;DHT22;10615;42.702;23.314;2023-01-19T05:47:32;15.10;49.90
20911;DHT22;10615;42.702;23.314;2023-01-19T05:48:33;15.10;49.90
20911;DHT22;10615;42.702;23.314;2023-01-19T05:49:33;15.10;49.90
20911;DHT22;10615;42.702;23.314;2023-01-19T05:50:35;15.20;49.90
20911;DHT22;10615;42.702;23.314;2023-01-19T05:51:36;15.10;50.80
20911;DHT22;10615;42.702;23.314;2023-01-19T05:52:39;15.10;50.20
20911;DHT22;10615;42.702;23.314;2023-01-19T05:53:40;15.20;50.30
20911;DHT22;10615;42.702;23.314;2023-01-19T05:54:41;15.20;50.30
20911;DHT22;10615;42.702;23.314;2023-01-19T05:55:41;15.10;50.20
20911;DHT22;10615;42.702;23.314;2023-01-19T05:56:42;15.20;50.20
20911;DHT22;10615;42.702;23.314;2023-01-19T05:57:43;15.20;50.00
20911;DHT22;10615;42.702;23.314;2023-01-19T05:58:44;15.20;49.90
20911;DHT22;10615;42.702;23.314;2023-01-19T05:59:45;15.20;49.80
20911;DHT22;10615;42.702;23.314;2023-01-19T06:00:46;15.20;49.80
20911;DHT22;10615;42.702;23.314;2023-01-19T06:01:46;15.20;49.70
20911;DHT22;10615;42.702;23.314;2023-01-19T06:02:47;15.20;49.70
20911;DHT22;10615;42.702;23.314;2023-01-19T06:03:48;15.20;49.60
20911;DHT22;10615;42.702;23.314;2023-01-19T06:04:49;15.20;49.60
20911;DHT22;10615;42.702;23.314;2023-01-19T06:05:50;15.20;49.60
20911;DHT22;10615;42.702;23.314;2023-01-19T06:06:50;15.20;49.60
20911;DHT22;10615;42.702;23.314;2023-01-19T06:07:51;15.20;49.60
20911;DHT22;10615;42.702;23.314;2023-01-19T06:08:52;15.30;49.70
20911;DHT22;10615;42.702;23.314;2023-01-19T06:09:53;15.30;49.60
20911;DHT22;10615;42.702;23.314;2023-01-19T06:10:53;15.30;49.60
20911;DHT22;10615;42.702;23.314;2023-01-19T06:11:54;15.30;49.50
20911;DHT22;10615;42.702;23.314;2023-01-19T06:12:57;15.40;49.50
20911;DHT22;10615;42.702;23.314;2023-01-19T06:13:57;15.40;49.50
20911;DHT22;10615;42.702;23.314;2023-01-19T06:14:58;15.40;49.40
20911;DHT22;10615;42.702;23.314;2023-01-19T06:16:00;15.40;49.30
20911;DHT22;10615;42.702;23.314;2023-01-19T06:17:00;15.40;49.20
20911;DHT22;10615;42.702;23.314;2023-01-19T06:18:01;15.50;49.20
20911;DHT22;10615;42.702;23.314;2023-01-19T06:19:02;15.50;49.20
20911;DHT22;10615;42.702;23.314;2023-01-19T06:20:02;15.50;49.10
20911;DHT22;10615;42.702;23.314;2023-01-19T06:21:08;15.50;49.10
20911;DHT22;10615;42.702;23.314;2023-01-19T06:22:11;15.60;49.10
20911;DHT22;10615;42.702;23.314;2023-01-19T06:23:12;15.60;49.10
20911;DHT22;10615;42.702;23.314;2023-01-19T06:24:12;15.70;49.10
20911;DHT22;10615;42.702;23.314;2023-01-19T06:25:13;15.70;49.00
20911;DHT22;10615;42.702;23.314;2023-01-19T06:26:14;15.80;48.90
20911;DHT22;10615;42.702;23.314;2023-01-19T06:27:14;15.80;48.70
20911;DHT22;10615;42.702;23.314;2023-01-19T06:28:15;15.90;48.70
20911;DHT22;10615;42.702;23.314;2023-01-19T06:29:16;15.90;48.60
20911;DHT22;10615;42.702;23.314;2023-01-19T06:30:17;16.00;48.30
20911;DHT22;10615;42.702;23.314;2023-01-19T06:31:18;16.00;48.10
20911;DHT22;10615;42.702;23.314;2023-01-19T06:32:19;16.10;48.00
20911;DHT22;10615;42.702;23.314;2023-01-19T06:33:20;16.10;48.00
20911;DHT22;10615;42.702;23.314;2023-01-19T06:34:21;16.20;48.00
20911;DHT22;10615;42.702;23.314;2023-01-19T06:35:21;16.20;47.80
20911;DHT22;10615;42.702;23.314;2023-01-19T06:36:22;16.20;47.70
20911;DHT22;10615;42.702;23.314;2023-01-19T06:37:22;16.30;47.70
20911;DHT22;10615;42.702;23.314;2023-01-19T06:38:26;16.30;47.50
20911;DHT22;10615;42.702;23.314;2023-01-19T06:39:27;16.40;47.50
20911;DHT22;10615;42.702;23.314;2023-01-19T06:40:28;16.40;47.40
20911;DHT22;10615;42.702;23.314;2023-01-19T06:41:28;16.50;47.30
20911;DHT22;10615;42.702;23.314;2023-01-19T06:42:29;16.50;47.10
20911;DHT22;10615;42.702;23.314;2023-01-19T06:43:30;16.50;46.80
20911;DHT22;10615;42.702;23.314;2023-01-19T06:44:31;16.60;46.80
20911;DHT22;10615;42.702;23.314;2023-01-19T06:45:31;16.60;46.70
20911;DHT22;10615;42.702;23.314;2023-01-19T06:46:32;16.70;46.50
20911;DHT22;10615;42.702;23.314;2023-01-19T06:47:34;16.80;46.50